Time;durP1;ratioP1;P1;durP2;ratioP2;P2;SDS_P1;SDS_P2;PMS_P1;PMS_P2;Temp;Humidity;BMP_temperature;BMP_pressure;BME280_temperature;BME280_humidity;BME280_pressure;Samples;Min_cycle;Max_cycle;Signal;HPM_P1;HPM_P2
2021/11/05 00:02:10;;;;;;;0.40;0.20;;;7.40;99.90;;;;;;5091982;28;20374;-69
2021/11/05 00:04:35;;;;;;;0.40;0.20;;;7.40;99.90;;;;;;5091105;28;20416;-69
2021/11/05 00:07:04;;;;;;;0.40;0.20;;;7.30;99.90;;;;;;5091429;28;20392;-69
2021/11/05 00:09:30;;;;;;;0.40;0.20;;;7.40;99.90;;;;;;5090738;28;20443;-70
2021/11/05 00:11:56;;;;;;;0.40;0.30;;;7.40;99.90;;;;;;5091636;28;20382;-70
2021/11/05 00:14:21;;;;;;;0.40;0.20;;;7.30;99.90;;;;;;5091434;28;20374;-70
2021/11/05 00:16:47;;;;;;;0.40;0.20;;;7.30;99.90;;;;;;5090748;28;20465;-69
2021/11/05 00:19:14;;;;;;;0.40;0.20;;;7.40;99.90;;;;;;5091578;28;20382;-69
2021/11/05 00:21:39;;;;;;;0.40;0.20;;;7.40;99.90;;;;;;5090928;28;20398;-69
2021/11/05 00:24:06;;;;;;;0.40;0.30;;;7.40;99.90;;;;;;5091354;28;20417;-69
2021/11/05 00:26:34;;;;;;;0.40;0.20;;;7.40;99.90;;;;;;5090544;28;20374;-69
2021/11/05 00:29:00;;;;;;;0.40;0.20;;;7.40;99.90;;;;;;5091303;28;20475;-69
2021/11/05 00:31:26;;;;;;;0.40;0.20;;;7.40;99.90;;;;;;5090501;28;20868;-68
2021/11/05 00:33:51;;;;;;;0.40;0.30;;;7.40;99.90;;;;;;5091078;28;20453;-69
2021/11/05 00:36:17;;;;;;;0.40;0.30;;;7.30;99.90;;;;;;5091180;28;20402;-70
2021/11/05 00:38:44;;;;;;;0.40;0.20;;;7.20;99.90;;;;;;5090751;28;20440;-69
2021/11/05 00:41:15;;;;;;;0.40;0.20;;;7.30;99.90;;;;;;5091191;28;20807;-69
2021/11/05 00:43:41;;;;;;;0.40;0.20;;;7.30;99.90;;;;;;5089286;28;20731;-69
2021/11/05 00:46:07;;;;;;;0.40;0.20;;;7.40;99.90;;;;;;5090924;28;20929;-69
2021/11/05 00:48:33;;;;;;;0.40;0.20;;;7.40;99.90;;;;;;5090397;28;20382;-69
2021/11/05 00:50:59;;;;;;;0.40;0.23;;;7.40;99.90;;;;;;5090900;28;20393;-69
2021/11/05 00:53:26;;;;;;;0.40;0.20;;;7.40;99.90;;;;;;5090039;28;20406;-69
2021/11/05 00:55:52;;;;;;;0.40;0.20;;;7.40;99.90;;;;;;5090676;28;20390;-69
2021/11/05 00:58:19;;;;;;;0.40;0.20;;;7.30;99.90;;;;;;5090160;28;20809;-69
2021/11/05 01:00:45;;;;;;;0.40;0.20;;;7.50;99.90;;;;;;5090093;28;20677;-69
2021/11/05 01:03:11;;;;;;;0.40;0.20;;;7.60;99.90;;;;;;5090436;28;20424;-69
2021/11/05 01:05:37;;;;;;;0.40;0.20;;;7.50;99.90;;;;;;5090062;28;20378;-69
2021/11/05 01:08:07;;;;;;;0.40;0.20;;;7.40;99.90;;;;;;5090377;28;20394;-69
2021/11/05 01:10:35;;;;;;;0.40;0.20;;;7.40;99.90;;;;;;5090062;28;20806;-69
2021/11/05 01:13:02;;;;;;;0.40;0.30;;;7.40;99.90;;;;;;5090674;28;20389;-69
2021/11/05 01:15:28;;;;;;;0.40;0.20;;;7.50;99.90;;;;;;5090030;28;20405;-69
2021/11/05 01:17:54;;;;;;;0.40;0.30;;;7.60;99.90;;;;;;5089855;28;20461;-69
2021/11/05 01:20:20;;;;;;;0.40;0.20;;;7.50;99.90;;;;;;5090223;28;20420;-69
2021/11/05 01:22:46;;;;;;;0.40;0.20;;;7.40;99.90;;;;;;5089891;28;20410;-68
2021/11/05 01:25:14;;;;;;;0.40;0.30;;;7.50;99.90;;;;;;5090303;28;20378;-68
2021/11/05 01:27:44;;;;;;;0.40;0.30;;;7.50;99.90;;;;;;5089850;28;20378;-68
2021/11/05 01:30:11;;;;;;;0.40;0.20;;;7.50;99.90;;;;;;5090560;28;20382;-67
2021/11/05 01:32:38;;;;;;;0.40;0.20;;;7.50;99.90;;;;;;5089808;28;20378;-68
2021/11/05 01:35:05;;;;;;;0.40;0.20;;;7.60;99.90;;;;;;5090225;28;20412;-69
2021/11/05 01:37:31;;;;;;;0.40;0.38;;;7.60;99.90;;;;;;5089718;28;20412;-70
2021/11/05 01:39:57;;;;;;;0.40;0.20;;;7.50;99.90;;;;;;5090418;28;20378;-70
2021/11/05 01:42:23;;;;;;;0.40;0.20;;;7.60;99.90;;;;;;5090291;28;20382;-69
2021/11/05 01:44:48;;;;;;;0.40;0.20;;;7.60;99.90;;;;;;5089728;28;20396;-68
2021/11/05 01:47:14;;;;;;;0.40;0.30;;;7.60;99.90;;;;;;5090297;28;20374;-69
2021/11/05 01:49:40;;;;;;;0.40;0.30;;;7.60;99.90;;;;;;5089492;28;20705;-70
2021/11/05 01:52:07;;;;;;;0.40;0.20;;;7.60;99.90;;;;;;5089967;28;20878;-68
2021/11/05 01:54:33;;;;;;;0.40;0.20;;;7.50;99.90;;;;;;5089501;28;20512;-68
2021/11/05 01:56:59;;;;;;;0.40;0.20;;;7.40;99.90;;;;;;5089954;28;20898;-68
2021/11/05 01:59:30;;;;;;;0.40;0.20;;;7.50;99.90;;;;;;5090237;28;20814;-68
2021/11/05 02:02:00;;;;;;;0.40;0.20;;;7.60;99.90;;;;;;5090115;28;20839;-69
2021/11/05 02:04:28;;;;;;;0.40;0.30;;;7.50;99.90;;;;;;5089734;28;20427;-68
2021/11/05 02:06:55;;;;;;;0.40;0.20;;;7.60;99.90;;;;;;5089144;28;20377;-69
2021/11/05 02:09:24;;;;;;;0.40;0.20;;;7.60;99.90;;;;;;5090067;28;20378;-68
2021/11/05 02:11:54;;;;;;;0.80;0.80;;;7.60;99.90;;;;;;5089457;28;20643;-68
2021/11/05 02:14:22;;;;;;;0.40;0.40;;;7.70;99.90;;;;;;5090044;28;20374;-69
2021/11/05 02:16:51;;;;;;;0.40;0.30;;;7.70;99.90;;;;;;5089331;28;20397;-68
2021/11/05 02:19:20;;;;;;;0.40;0.40;;;7.60;99.90;;;;;;5089870;28;20444;-69
2021/11/05 02:21:48;;;;;;;0.40;0.30;;;7.60;99.90;;;;;;5088997;28;20431;-68
2021/11/05 02:24:15;;;;;;;0.40;0.20;;;7.60;99.90;;;;;;5089839;28;20377;-69
2021/11/05 02:26:43;;;;;;;0.40;0.20;;;7.50;99.90;;;;;;5089186;28;20382;-69
2021/11/05 02:29:10;;;;;;;0.40;0.30;;;7.50;99.90;;;;;;5089350;28;20385;-68
2021/11/05 02:31:36;;;;;;;0.40;0.20;;;7.60;99.90;;;;;;5092875;28;20396;-69
2021/11/05 02:34:02;;;;;;;0.40;0.20;;;7.60;99.90;;;;;;5093282;28;20382;-69
2021/11/05 02:36:29;;;;;;;0.40;0.20;;;7.40;99.90;;;;;;5093362;28;20402;-69
2021/11/05 02:38:55;;;;;;;0.40;0.30;;;7.40;99.90;;;;;;5092456;28;20503;-69
2021/11/05 02:41:20;;;;;;;0.40;0.30;;;7.50;99.90;;;;;;5093326;28;20409;-69
2021/11/05 02:43:50;;;;;;;0.40;0.20;;;7.40;99.90;;;;;;5093070;28;20383;-69
2021/11/05 02:46:16;;;;;;;0.40;0.30;;;7.20;99.90;;;;;;5093305;28;20854;-69
2021/11/05 02:48:42;;;;;;;0.40;0.20;;;7.30;99.90;;;;;;5092638;28;20378;-69
2021/11/05 02:51:09;;;;;;;0.40;0.20;;;7.30;99.90;;;;;;5092993;28;20457;-69
2021/11/05 02:53:36;;;;;;;0.40;0.20;;;7.30;99.90;;;;;;5092190;28;20823;-69
2021/11/05 02:56:02;;;;;;;0.40;0.20;;;7.30;99.90;;;;;;5093009;28;20547;-69
2021/11/05 02:58:28;;;;;;;0.40;0.20;;;7.30;99.90;;;;;;5092773;28;20862;-69
2021/11/05 03:00:55;;;;;;;0.40;0.20;;;7.40;99.90;;;;;;5091991;28;20379;-68
2021/11/05 03:03:20;;;;;;;0.40;0.20;;;7.50;99.90;;;;;;5092717;28;20431;-69
2021/11/05 03:05:46;;;;;;;0.40;0.30;;;7.60;99.90;;;;;;5091968;28;20374;-69
2021/11/05 03:08:12;;;;;;;0.40;0.20;;;7.50;99.90;;;;;;5093310;28;20390;-68
2021/11/05 03:10:37;;;;;;;0.40;0.20;;;7.40;99.90;;;;;;5091933;28;20392;-69
2021/11/05 03:13:03;;;;;;;0.40;0.30;;;7.40;99.90;;;;;;5093131;28;20738;-69
2021/11/05 03:15:29;;;;;;;0.40;0.20;;;7.50;99.90;;;;;;5091364;28;20406;-69
2021/11/05 03:17:56;;;;;;;0.40;0.20;;;7.50;99.90;;;;;;5091932;28;20402;-68
2021/11/05 03:20:22;;;;;;;0.40;0.20;;;7.50;99.90;;;;;;5092757;28;20382;-68
2021/11/05 03:22:48;;;;;;;0.40;0.30;;;7.60;99.90;;;;;;5091913;28;20435;-69
2021/11/05 03:25:14;;;;;;;0.40;0.20;;;7.60;99.90;;;;;;5092911;28;20398;-68
2021/11/05 03:27:41;;;;;;;0.40;0.20;;;7.40;99.90;;;;;;5091572;28;20468;-69
2021/11/05 03:30:09;;;;;;;0.40;0.20;;;7.60;99.90;;;;;;5092531;28;20715;-69
2021/11/05 03:32:36;;;;;;;0.40;0.20;;;7.50;99.90;;;;;;5091784;28;20898;-69
2021/11/05 03:35:04;;;;;;;0.40;0.40;;;7.40;99.90;;;;;;5092389;28;20401;-69
2021/11/05 03:37:30;;;;;;;0.40;0.30;;;7.50;99.90;;;;;;5092598;28;20394;-69
2021/11/05 03:39:56;;;;;;;0.40;0.30;;;7.60;99.90;;;;;;5091736;28;20392;-70
2021/11/05 03:42:21;;;;;;;0.40;0.40;;;7.50;99.90;;;;;;5091354;28;20485;-70
2021/11/05 03:44:47;;;;;;;0.40;0.20;;;7.50;99.90;;;;;;5091658;28;20881;-70
2021/11/05 03:47:13;;;;;;;0.40;0.20;;;7.40;99.90;;;;;;5092121;28;20440;-70
2021/11/05 03:49:38;;;;;;;0.60;0.40;;;7.20;99.90;;;;;;5091529;28;20417;-70
2021/11/05 03:52:05;;;;;;;0.40;0.20;;;7.10;99.90;;;;;;5091703;28;20501;-70
2021/11/05 03:54:33;;;;;;;0.40;0.20;;;7.10;99.90;;;;;;5091866;28;20382;-70
2021/11/05 03:56:59;;;;;;;0.40;0.20;;;7.10;99.90;;;;;;5091068;28;20469;-70
2021/11/05 03:59:24;;;;;;;0.40;0.27;;;7.30;99.90;;;;;;5091952;28;20466;-70
2021/11/05 04:01:50;;;;;;;0.40;0.20;;;7.40;99.90;;;;;;5091370;28;20795;-69
2021/11/05 04:04:16;;;;;;;0.40;0.20;;;7.40;99.90;;;;;;5091777;28;20465;-70
2021/11/05 04:06:42;;;;;;;0.40;0.20;;;7.40;99.90;;;;;;5090995;28;20401;-70
2021/11/05 04:09:08;;;;;;;0.60;0.60;;;7.50;99.90;;;;;;5092180;28;20863;-70
2021/11/05 04:11:34;;;;;;;0.40;0.22;;;7.30;99.90;;;;;;5091612;28;20374;-69
2021/11/05 04:14:00;;;;;;;0.40;0.30;;;7.30;99.90;;;;;;5090669;28;20866;-70
2021/11/05 04:16:25;;;;;;;0.40;0.20;;;7.30;99.90;;;;;;5091500;28;20458;-69
2021/11/05 04:18:51;;;;;;;0.40;0.20;;;7.20;99.90;;;;;;5090864;28;20454;-70
2021/11/05 04:21:20;;;;;;;0.40;0.20;;;7.30;99.90;;;;;;5091378;28;20427;-70
2021/11/05 04:23:46;;;;;;;0.40;0.38;;;7.30;99.90;;;;;;5090731;28;20385;-70
2021/11/05 04:26:12;;;;;;;0.40;0.30;;;7.50;99.90;;;;;;5091319;28;20374;-70
2021/11/05 04:28:38;;;;;;;0.40;0.30;;;7.40;99.90;;;;;;5091329;28;20429;-70
2021/11/05 04:31:04;;;;;;;0.40;0.30;;;7.40;99.90;;;;;;5091232;28;20484;-70
2021/11/05 04:33:32;;;;;;;0.40;0.30;;;7.30;99.90;;;;;;5091190;28;20843;-69
2021/11/05 04:36:04;;;;;;;0.40;0.20;;;7.40;99.90;;;;;;5090534;28;21168;-69
2021/11/05 04:38:30;;;;;;;0.40;0.30;;;7.40;99.90;;;;;;5091340;28;20402;-70
2021/11/05 04:40:56;;;;;;;0.40;0.20;;;7.50;99.90;;;;;;5090468;28;20455;-70
2021/11/05 04:43:23;;;;;;;0.40;0.20;;;7.50;99.90;;;;;;5091082;28;20427;-69
2021/11/05 04:45:48;;;;;;;0.40;0.20;;;7.30;99.90;;;;;;5090509;28;20435;-69
2021/11/05 04:48:17;;;;;;;0.40;0.20;;;7.30;99.90;;;;;;5090874;28;20386;-70
2021/11/05 04:50:44;;;;;;;0.40;0.30;;;7.40;99.90;;;;;;5090411;28;20743;-70
2021/11/05 04:53:10;;;;;;;0.40;0.20;;;7.30;99.90;;;;;;5090395;28;20433;-69
2021/11/05 04:55:36;;;;;;;0.40;0.30;;;7.40;99.90;;;;;;5090840;28;20514;-69
2021/11/05 04:58:01;;;;;;;0.40;0.30;;;7.40;99.90;;;;;;5090205;28;20389;-69
2021/11/05 05:00:28;;;;;;;0.40;0.20;;;7.40;99.90;;;;;;5090981;28;20451;-69
2021/11/05 05:02:54;;;;;;;0.40;0.20;;;7.50;99.90;;;;;;5090382;28;20389;-69
2021/11/05 05:05:21;;;;;;;0.40;0.28;;;7.60;99.90;;;;;;5091388;28;20472;-69
2021/11/05 05:07:47;;;;;;;0.40;0.30;;;7.60;99.90;;;;;;5090748;28;20443;-69
2021/11/05 05:10:14;;;;;;;0.40;0.30;;;7.30;99.90;;;;;;5091321;28;20381;-69
2021/11/05 05:12:40;;;;;;;0.40;0.30;;;7.40;99.90;;;;;;5091247;28;20370;-69
2021/11/05 05:15:09;;;;;;;0.40;0.20;;;7.30;99.90;;;;;;5091185;28;20448;-69
2021/11/05 05:17:34;;;;;;;0.40;0.20;;;7.10;99.90;;;;;;5091019;28;20378;-68
2021/11/05 05:20:02;;;;;;;0.40;0.30;;;7.00;99.90;;;;;;5090597;28;20928;-68
2021/11/05 05:22:28;;;;;;;0.40;0.20;;;7.00;99.90;;;;;;5091063;28;20378;-69
2021/11/05 05:24:54;;;;;;;0.40;0.20;;;7.00;99.90;;;;;;5090432;28;20386;-69
2021/11/05 05:27:19;;;;;;;0.40;0.30;;;7.20;99.90;;;;;;5090899;28;20374;-68
2021/11/05 05:29:47;;;;;;;0.40;0.30;;;7.30;99.90;;;;;;5090094;28;20390;-68
2021/11/05 05:32:13;;;;;;;0.40;0.30;;;7.30;99.90;;;;;;5090870;28;20374;-69
2021/11/05 05:34:39;;;;;;;0.40;0.20;;;7.40;99.90;;;;;;5090545;28;20402;-68
2021/11/05 05:37:05;;;;;;;0.40;0.20;;;7.60;99.90;;;;;;5089286;28;20439;-69
2021/11/05 05:39:31;;;;;;;0.40;0.40;;;7.40;99.90;;;;;;5090727;28;20385;-68
2021/11/05 05:41:56;;;;;;;0.40;0.20;;;7.30;99.90;;;;;;5089809;28;20396;-68
2021/11/05 05:44:22;;;;;;;0.40;0.20;;;7.40;99.90;;;;;;5089916;28;20387;-69
2021/11/05 05:46:48;;;;;;;0.40;0.20;;;7.50;99.90;;;;;;5091037;28;20884;-69
2021/11/05 05:49:13;;;;;;;0.40;0.28;;;7.40;99.90;;;;;;5091053;28;20727;-69
2021/11/05 05:51:39;;;;;;;0.40;0.20;;;7.40;99.90;;;;;;5104563;28;20407;-68
2021/11/05 05:54:05;;;;;;;0.40;0.20;;;7.50;99.90;;;;;;5110092;28;20762;-69
2021/11/05 05:56:30;;;;;;;0.40;0.20;;;7.30;99.90;;;;;;5093690;28;20453;-69
2021/11/05 05:58:56;;;;;;;2.40;0.90;;;7.40;99.90;;;;;;5101697;28;20492;-70
2021/11/05 06:01:21;;;;;;;0.40;0.20;;;7.50;99.90;;;;;;5100545;28;20376;-70
2021/11/05 06:03:47;;;;;;;0.40;0.20;;;7.50;99.90;;;;;;5110332;28;20832;-71
2021/11/05 06:06:13;;;;;;;0.40;0.20;;;7.40;99.90;;;;;;5112969;28;20393;-69
2021/11/05 06:08:40;;;;;;;0.40;0.20;;;7.30;99.90;;;;;;5114527;28;20426;-70
2021/11/05 06:11:07;;;;;;;0.40;0.20;;;7.20;99.90;;;;;;5113615;28;20965;-70
2021/11/05 06:13:32;;;;;;;0.40;0.20;;;7.30;99.90;;;;;;5112991;28;20725;-70
2021/11/05 06:15:58;;;;;;;0.40;0.30;;;7.30;99.90;;;;;;5114364;28;20491;-70
2021/11/05 06:18:25;;;;;;;0.60;0.60;;;7.30;99.90;;;;;;5114674;27;20388;-70
2021/11/05 06:20:50;;;;;;;0.40;0.30;;;7.30;99.90;;;;;;5114170;28;20451;-70
2021/11/05 06:23:16;;;;;;;0.40;0.20;;;7.30;99.90;;;;;;5112458;27;20407;-70
2021/11/05 06:25:42;;;;;;;0.40;0.20;;;7.40;99.90;;;;;;5093978;28;20386;-70
2021/11/05 06:28:08;;;;;;;0.40;0.20;;;7.40;99.90;;;;;;5093023;28;20370;-70
2021/11/05 06:30:33;;;;;;;0.70;0.70;;;7.40;99.90;;;;;;5093797;28;20787;-70
2021/11/05 06:33:01;;;;;;;0.40;0.20;;;7.50;99.90;;;;;;5093139;28;20405;-70
2021/11/05 06:35:28;;;;;;;0.40;0.30;;;7.40;99.90;;;;;;5092720;28;20918;-69
2021/11/05 06:37:56;;;;;;;0.40;0.20;;;7.50;99.90;;;;;;5093407;28;20870;-70
2021/11/05 06:40:22;;;;;;;0.40;0.30;;;7.50;99.90;;;;;;5094010;28;20386;-69
2021/11/05 06:42:48;;;;;;;0.40;0.20;;;7.40;99.90;;;;;;5093223;28;20386;-70
2021/11/05 06:45:15;;;;;;;0.40;0.20;;;7.50;99.90;;;;;;5093507;28;20467;-70
2021/11/05 06:47:40;;;;;;;0.40;0.20;;;7.50;99.90;;;;;;5093817;28;20436;-68
2021/11/05 06:50:08;;;;;;;0.40;0.20;;;7.40;99.90;;;;;;5093153;28;20989;-70
2021/11/05 06:52:34;;;;;;;0.40;0.22;;;7.50;99.90;;;;;;5093182;28;20463;-70
2021/11/05 06:55:01;;;;;;;0.40;0.20;;;7.40;99.90;;;;;;5092687;28;20406;-69
2021/11/05 06:57:27;;;;;;;0.40;0.20;;;7.40;99.90;;;;;;5093833;28;20382;-70
2021/11/05 06:59:56;;;;;;;0.40;0.30;;;7.30;99.90;;;;;;5092068;28;20430;-70
2021/11/05 07:02:22;;;;;;;0.40;0.20;;;7.40;99.90;;;;;;5093444;28;20907;-70
2021/11/05 07:04:47;;;;;;;0.40;0.20;;;7.40;99.90;;;;;;5092860;28;20382;-72
2021/11/05 07:07:13;;;;;;;0.40;0.20;;;7.30;99.90;;;;;;5093044;28;20917;-71
2021/11/05 07:09:39;;;;;;;0.40;0.30;;;7.40;99.90;;;;;;5093381;28;20834;-71
2021/11/05 07:12:05;;;;;;;0.40;0.20;;;7.40;99.90;;;;;;5092842;28;20783;-71
2021/11/05 07:14:31;;;;;;;0.40;0.20;;;7.30;99.90;;;;;;5093012;28;20471;-70
2021/11/05 07:16:56;;;;;;;0.40;0.20;;;7.30;99.90;;;;;;5091280;28;20417;-70
2021/11/05 07:19:24;;;;;;;0.50;0.50;;;7.30;99.90;;;;;;5093156;28;20378;-70
2021/11/05 07:22:04;;;;;;;0.50;0.50;;;7.40;99.90;;;;;;5092575;28;20379;-71
2021/11/05 07:24:36;;;;;;;0.40;0.30;;;7.50;99.90;;;;;;5092949;28;20950;-70
2021/11/05 07:27:02;;;;;;;0.40;0.23;;;7.50;99.90;;;;;;5092302;28;20865;-71
2021/11/05 07:29:28;;;;;;;0.40;0.30;;;7.50;99.90;;;;;;5093029;28;20374;-70
2021/11/05 07:31:58;;;;;;;0.40;0.20;;;7.40;99.90;;;;;;5092334;28;20451;-71
2021/11/05 07:34:25;;;;;;;0.40;0.20;;;7.40;99.90;;;;;;5092776;28;20382;-70
2021/11/05 07:36:53;;;;;;;0.40;0.30;;;7.50;99.90;;;;;;5092198;28;20466;-71
2021/11/05 07:39:19;;;;;;;0.40;0.20;;;7.40;99.90;;;;;;5092501;28;20385;-70
2021/11/05 07:41:44;;;;;;;0.40;0.20;;;7.40;99.90;;;;;;5092475;28;20378;-70
2021/11/05 07:44:10;;;;;;;0.40;0.20;;;7.40;99.90;;;;;;5092043;28;20374;-70
2021/11/05 07:46:36;;;;;;;0.40;0.20;;;7.40;99.90;;;;;;5092835;28;20419;-70
2021/11/05 07:49:01;;;;;;;0.50;0.50;;;7.40;99.90;;;;;;5107639;28;20862;-71
2021/11/05 07:51:28;;;;;;;0.40;0.30;;;7.40;99.90;;;;;;5092328;28;20402;-70
2021/11/05 07:53:54;;;;;;;0.50;0.40;;;7.40;99.90;;;;;;5091862;28;20378;-71
2021/11/05 07:56:20;;;;;;;0.40;0.30;;;7.40;99.90;;;;;;5092070;28;20398;-70
2021/11/05 07:58:46;;;;;;;0.40;0.20;;;7.40;99.90;;;;;;5092278;28;20390;-70
2021/11/05 08:01:11;;;;;;;0.40;0.20;;;7.40;99.90;;;;;;5091549;28;20385;-69
2021/11/05 08:03:37;;;;;;;0.40;0.20;;;7.40;99.90;;;;;;5092166;28;20461;-69
2021/11/05 08:06:03;;;;;;;0.40;0.30;;;7.40;99.90;;;;;;5091341;28;20473;-70
2021/11/05 08:08:29;;;;;;;0.40;0.20;;;7.50;99.90;;;;;;5092395;28;20572;-69
2021/11/05 08:10:55;;;;;;;0.40;0.20;;;7.50;99.90;;;;;;5091560;28;20389;-70
2021/11/05 08:13:21;;;;;;;0.60;0.60;;;7.50;99.90;;;;;;5092312;28;20414;-70
2021/11/05 08:15:47;;;;;;;0.40;0.20;;;7.50;99.90;;;;;;5091702;28;20502;-70
2021/11/05 08:18:16;;;;;;;0.40;0.40;;;7.50;99.90;;;;;;5091523;28;20378;-70
2021/11/05 08:20:41;;;;;;;0.40;0.20;;;7.60;99.90;;;;;;5092054;28;20492;-69
2021/11/05 08:23:08;;;;;;;0.40;0.30;;;7.60;99.90;;;;;;5091399;28;20370;-69
2021/11/05 08:25:34;;;;;;;0.40;0.20;;;7.60;99.90;;;;;;5091888;28;20386;-69
2021/11/05 08:28:00;;;;;;;0.40;0.30;;;7.60;99.90;;;;;;5090714;28;20386;-70
2021/11/05 08:30:26;;;;;;;0.40;0.20;;;7.70;99.90;;;;;;5091823;28;20680;-70
2021/11/05 08:32:56;;;;;;;0.40;0.30;;;7.70;99.90;;;;;;5091753;28;20374;-70
2021/11/05 08:35:23;;;;;;;0.40;0.25;;;7.90;99.90;;;;;;5091744;28;20739;-70
2021/11/05 08:37:49;;;;;;;0.40;0.20;;;8.00;99.90;;;;;;5091424;28;20792;-70
2021/11/05 08:40:15;;;;;;;0.40;0.20;;;8.00;99.90;;;;;;5091060;28;20390;-70
2021/11/05 08:42:41;;;;;;;0.40;0.20;;;7.90;99.90;;;;;;5091615;28;20380;-70
2021/11/05 08:45:08;;;;;;;0.68;0.68;;;8.00;99.90;;;;;;5090839;28;20382;-70
2021/11/05 08:47:36;;;;;;;0.40;0.20;;;8.00;99.90;;;;;;5091307;28;20390;-69
2021/11/05 08:50:05;;;;;;;0.60;0.60;;;8.00;99.90;;;;;;5090788;28;20392;-70
2021/11/05 08:52:32;;;;;;;0.40;0.20;;;8.00;99.90;;;;;;5091572;28;20483;-70
2021/11/05 08:55:04;;;;;;;0.40;0.20;;;8.00;99.90;;;;;;5090639;28;20753;-70
2021/11/05 08:57:30;;;;;;;0.40;0.30;;;8.10;99.90;;;;;;5091422;28;20476;-70
2021/11/05 08:59:55;;;;;;;0.40;0.20;;;8.30;99.90;;;;;;5090724;28;20469;-70
2021/11/05 09:02:21;;;;;;;0.40;0.20;;;8.30;99.90;;;;;;5091385;28;20385;-70
2021/11/05 09:04:47;;;;;;;0.40;0.20;;;8.20;99.90;;;;;;5091311;28;20390;-70
2021/11/05 09:07:13;;;;;;;0.40;0.30;;;8.30;99.90;;;;;;5090706;28;20485;-70
2021/11/05 09:09:41;;;;;;;0.40;0.20;;;8.30;99.90;;;;;;5090999;28;20393;-70
2021/11/05 09:12:08;;;;;;;0.40;0.20;;;8.40;99.90;;;;;;5090744;28;20370;-70
2021/11/05 09:14:33;;;;;;;0.40;0.20;;;8.40;99.90;;;;;;5091376;28;20386;-70
2021/11/05 09:16:59;;;;;;;0.40;0.30;;;8.40;99.90;;;;;;5090304;28;20444;-70
2021/11/05 09:19:25;;;;;;;0.40;0.20;;;8.40;99.90;;;;;;5091166;28;20378;-70
2021/11/05 09:21:51;;;;;;;0.40;0.20;;;8.50;99.90;;;;;;5091081;28;20439;-70
2021/11/05 09:24:16;;;;;;;0.40;0.30;;;8.60;99.90;;;;;;5090357;28;20869;-70
2021/11/05 09:26:42;;;;;;;0.40;0.30;;;8.70;99.90;;;;;;5090526;28;20385;-70
2021/11/05 09:29:08;;;;;;;0.40;0.20;;;8.80;99.90;;;;;;5090347;28;20454;-70
2021/11/05 09:31:33;;;;;;;0.40;0.30;;;8.60;99.90;;;;;;5090907;28;20739;-70
2021/11/05 09:33:59;;;;;;;0.40;0.30;;;8.60;99.90;;;;;;5090110;28;20723;-70
2021/11/05 09:36:25;;;;;;;0.40;0.30;;;8.70;99.90;;;;;;5090457;28;20405;-69
2021/11/05 09:38:51;;;;;;;0.40;0.30;;;8.90;99.90;;;;;;5091277;28;20784;-69
2021/11/05 09:41:17;;;;;;;0.60;0.50;;;8.90;99.90;;;;;;5094565;28;20433;-69
2021/11/05 09:43:43;;;;;;;0.40;0.22;;;9.00;99.90;;;;;;5094982;28;20435;-69
2021/11/05 09:46:10;;;;;;;0.40;0.20;;;8.90;99.90;;;;;;5094387;28;20431;-69
2021/11/05 09:48:39;;;;;;;0.40;0.20;;;9.00;99.90;;;;;;5094951;28;20382;-69
2021/11/05 09:51:10;;;;;;;0.40;0.20;;;9.00;99.90;;;;;;5093994;28;20798;-69
2021/11/05 09:53:38;;;;;;;0.40;0.20;;;9.00;99.90;;;;;;5094623;28;20411;-69
2021/11/05 09:56:05;;;;;;;0.40;0.20;;;9.20;99.90;;;;;;5094192;28;20405;-68
2021/11/05 09:58:35;;;;;;;1.20;0.80;;;9.10;99.90;;;;;;5095146;28;20381;-69
2021/11/05 10:01:01;;;;;;;0.40;0.20;;;9.20;99.90;;;;;;5094464;28;20409;-70
2021/11/05 10:03:28;;;;;;;0.40;0.20;;;9.30;99.90;;;;;;5094697;28;20862;-69
2021/11/05 10:05:54;;;;;;;0.40;0.30;;;9.40;99.90;;;;;;5094609;28;20386;-69
2021/11/05 10:08:33;;;;;;;0.40;0.20;;;9.50;99.90;;;;;;5093786;28;20448;-69
2021/11/05 10:11:01;;;;;;;0.90;0.80;;;9.20;99.90;;;;;;5094073;28;20382;-70
2021/11/05 10:13:27;;;;;;;0.40;0.20;;;9.30;99.90;;;;;;5094557;28;20412;-68
2021/11/05 10:15:56;;;;;;;0.40;0.20;;;9.40;99.90;;;;;;5094550;28;20445;-68
2021/11/05 10:18:31;;;;;;;0.40;0.30;;;9.20;99.90;;;;;;5093780;28;20731;-69
2021/11/05 10:21:15;;;;;;;0.40;0.30;;;9.20;99.90;;;;;;5094129;28;20398;-69
2021/11/05 10:23:42;;;;;;;0.40;0.22;;;9.50;99.90;;;;;;5094140;28;20424;-69
2021/11/05 10:26:27;;;;;;;0.40;0.20;;;9.60;99.90;;;;;;5093442;28;20382;-69
2021/11/05 10:28:54;;;;;;;0.40;0.20;;;9.70;99.90;;;;;;5094240;28;20712;-69
2021/11/05 10:31:23;;;;;;;0.40;0.30;;;9.80;99.90;;;;;;5093605;28;20658;-69
2021/11/05 10:33:50;;;;;;;0.40;0.20;;;9.70;99.90;;;;;;5094117;28;20381;-70
2021/11/05 10:36:21;;;;;;;0.40;0.20;;;9.70;99.90;;;;;;5093286;28;20599;-70
2021/11/05 10:39:02;;;;;;;0.50;0.50;;;9.80;99.90;;;;;;5093762;28;20390;-69
2021/11/05 10:41:30;;;;;;;0.40;0.30;;;9.60;99.90;;;;;;5094052;28;20371;-69
2021/11/05 10:44:15;;;;;;;0.40;0.20;;;9.40;99.90;;;;;;5093835;28;20385;-69
2021/11/05 10:46:42;;;;;;;0.40;0.30;;;9.70;99.90;;;;;;5093400;28;20390;-69
2021/11/05 10:49:30;;;;;;;0.40;0.20;;;9.90;99.90;;;;;;5093169;28;20489;-69
2021/11/05 10:52:16;;;;;;;0.40;0.20;;;10.10;99.90;;;;;;5093477;28;20743;-69
2021/11/05 10:54:57;;;;;;;0.40;0.20;;;10.60;99.90;;;;;;5093570;28;20730;-69
2021/11/05 10:57:43;;;;;;;0.40;0.20;;;11.20;99.90;;;;;;5092958;28;20863;-69
2021/11/05 11:00:27;;;;;;;0.40;0.30;;;11.60;99.90;;;;;;5092970;28;20382;-69
2021/11/05 11:02:52;;;;;;;0.40;0.30;;;12.00;99.90;;;;;;5093552;28;20439;-70
2021/11/05 11:05:32;;;;;;;0.40;0.20;;;12.50;99.90;;;;;;5092814;28;20846;-70
2021/11/05 11:07:59;;;;;;;0.40;0.27;;;13.40;99.90;;;;;;5093587;28;20396;-69
2021/11/05 11:10:34;;;;;;;0.40;0.20;;;13.90;99.90;;;;;;5092925;28;20386;-69
2021/11/05 11:13:00;;;;;;;0.40;0.20;;;14.40;99.90;;;;;;5093327;28;20402;-69
2021/11/05 11:15:37;;;;;;;0.40;0.20;;;14.60;99.90;;;;;;5092398;28;20449;-70
2021/11/05 11:18:04;;;;;;;0.40;0.30;;;14.40;98.40;;;;;;5092837;28;20522;-70
2021/11/05 11:20:32;;;;;;;0.40;0.20;;;13.10;99.90;;;;;;5092998;28;20469;-70
2021/11/05 11:23:00;;;;;;;0.40;0.30;;;12.00;99.90;;;;;;5093077;28;20418;-70
2021/11/05 11:25:25;;;;;;;0.40;0.30;;;11.40;99.90;;;;;;5092309;28;20390;-70
2021/11/05 11:27:51;;;;;;;0.40;0.30;;;11.40;99.90;;;;;;5092987;28;20458;-70
2021/11/05 11:30:18;;;;;;;0.40;0.30;;;11.20;99.90;;;;;;5092368;28;20456;-70
2021/11/05 11:32:51;;;;;;;0.40;0.20;;;11.00;99.90;;;;;;5092755;28;20382;-70
2021/11/05 11:35:17;;;;;;;0.40;0.30;;;10.90;99.90;;;;;;5092051;28;20431;-70
2021/11/05 11:37:45;;;;;;;0.90;0.60;;;10.70;99.90;;;;;;5092478;28;20414;-70
2021/11/05 11:40:11;;;;;;;0.40;0.30;;;10.50;99.90;;;;;;5092237;28;20390;-69
2021/11/05 11:42:38;;;;;;;0.40;0.30;;;11.10;99.90;;;;;;5092798;28;20534;-69
2021/11/05 11:45:13;;;;;;;0.40;0.30;;;12.30;99.90;;;;;;5092350;28;20863;-69
2021/11/05 11:47:46;;;;;;;0.40;0.30;;;13.30;99.90;;;;;;5092480;28;20413;-69
2021/11/05 11:50:30;;;;;;;0.40;0.25;;;13.10;99.90;;;;;;5092042;28;20366;-69
2021/11/05 11:53:09;;;;;;;0.40;0.20;;;12.10;99.90;;;;;;5092290;28;20406;-69
2021/11/05 11:55:38;;;;;;;0.40;0.30;;;12.00;99.90;;;;;;5092495;28;20424;-69
2021/11/05 11:58:12;;;;;;;0.40;0.30;;;11.70;99.90;;;;;;5092300;28;20477;-69
2021/11/05 12:00:38;;;;;;;0.50;0.40;;;11.40;99.90;;;;;;5092406;28;20371;-68
2021/11/05 12:03:10;;;;;;;0.40;0.30;;;11.00;99.90;;;;;;5091611;28;20447;-69
2021/11/05 12:05:42;;;;;;;0.40;0.30;;;10.90;99.90;;;;;;5092495;28;20422;-69
2021/11/05 12:08:34;;;;;;;0.40;0.20;;;11.50;99.90;;;;;;5091835;28;20402;-69
2021/11/05 12:11:14;;;;;;;0.40;0.20;;;11.30;99.90;;;;;;5092377;28;20394;-69
2021/11/05 12:13:48;;;;;;;0.40;0.30;;;10.90;99.90;;;;;;5091729;28;20952;-70
2021/11/05 12:16:16;;;;;;;0.40;0.20;;;10.50;99.90;;;;;;5091660;28;20405;-70
2021/11/05 12:18:58;;;;;;;0.40;0.30;;;10.10;99.90;;;;;;5091995;28;20390;-69
2021/11/05 12:21:30;;;;;;;0.40;0.20;;;9.50;99.90;;;;;;5091466;28;20418;-70
2021/11/05 12:24:14;;;;;;;0.40;0.20;;;9.30;99.90;;;;;;5091867;28;20751;-70
2021/11/05 12:27:02;;;;;;;0.40;0.30;;;9.20;99.90;;;;;;5091983;28;20386;-70
2021/11/05 12:29:34;;;;;;;0.40;0.30;;;9.10;99.90;;;;;;5091195;28;20417;-69
2021/11/05 12:32:19;;;;;;;1.02;0.85;;;9.10;99.90;;;;;;5091780;28;20393;-69
2021/11/05 12:35:05;;;;;;;0.40;0.20;;;9.30;99.90;;;;;;5091613;28;20856;-69
2021/11/05 12:37:32;;;;;;;0.40;0.20;;;9.30;99.90;;;;;;5090835;28;20400;-70
2021/11/05 12:40:20;;;;;;;0.40;0.30;;;9.20;99.90;;;;;;5091583;28;20874;-69
2021/11/05 12:42:47;;;;;;;0.40;0.20;;;9.30;99.90;;;;;;5091661;28;20392;-70
2021/11/05 12:45:14;;;;;;;0.40;0.20;;;9.30;99.90;;;;;;5091079;28;20386;-70
2021/11/05 12:47:56;;;;;;;0.40;0.30;;;9.30;99.90;;;;;;5091493;28;20390;-70
2021/11/05 12:50:27;;;;;;;0.40;0.30;;;9.40;99.90;;;;;;5090901;28;20374;-70
2021/11/05 12:53:12;;;;;;;0.40;0.30;;;9.30;99.90;;;;;;5091413;28;20409;-69
2021/11/05 12:55:44;;;;;;;0.40;0.30;;;9.30;99.90;;;;;;5091398;28;20494;-70
2021/11/05 12:58:15;;;;;;;0.40;0.30;;;9.40;99.90;;;;;;5090749;28;20447;-71
2021/11/05 13:00:44;;;;;;;0.40;0.28;;;9.50;99.90;;;;;;5090106;28;20386;-70